Kinsley, Kansas
Current Conditions -  °F | °C
As of 2:52 AM on Monday 20 Oct 2014 (Local Time) from KDDC Reporting Station
Clear Clear  
Wind Chill:   Ceiling: Unl
Heat Index:   Visibility: 9mi
Dew Point:   Wind: 8mph
Humidity: 90%   Direction: 320°NW
Pressure: 30.03"   Gusts: NA
Location:  37.92°N, 99.41°W
Report Text: KDDC 200752Z AUTO 32007KT 9SM CLR 09/08 A3003 RMK AO2 SLP152 T00940078 $
Loading
Personal Weather Stations






























Interactive Weather Map
Tropical Storm Tracking
New forecast layout! Learn more

10-Day Weather Forecast

Advertisements
Track Severe Weather on mobile